sensor_id;sensor_type;location;lat;lon;timestamp;pressure;altitude;pressure_sealevel;temperature;humidity
18504;BME280;9381;54.244;10.074;2022-10-31T00:02:24;101295.25;;;14.46;100.00
18504;BME280;9381;54.244;10.074;2022-10-31T00:07:24;101292.91;;;14.32;100.00
18504;BME280;9381;54.244;10.074;2022-10-31T00:12:25;101293.38;;;14.29;100.00
18504;BME280;9381;54.244;10.074;2022-10-31T00:17:26;101300.34;;;14.25;100.00
18504;BME280;9381;54.244;10.074;2022-10-31T00:22:26;101309.31;;;14.25;100.00
18504;BME280;9381;54.244;10.074;2022-10-31T00:27:26;101311.44;;;14.23;100.00
18504;BME280;9381;54.244;10.074;2022-10-31T00:32:28;101308.94;;;14.22;100.00
18504;BME280;9381;54.244;10.074;2022-10-31T00:37:30;101312.31;;;14.17;100.00
18504;BME280;9381;54.244;10.074;2022-10-31T00:42:30;101312.00;;;14.07;100.00
18504;BME280;9381;54.244;10.074;2022-10-31T00:47:30;101307.59;;;14.06;100.00
18504;BME280;9381;54.244;10.074;2022-10-31T00:52:30;101315.75;;;14.06;100.00
18504;BME280;9381;54.244;10.074;2022-10-31T00:57:31;101317.88;;;14.04;100.00
18504;BME280;9381;54.244;10.074;2022-10-31T01:02:31;101317.56;;;13.94;100.00
18504;BME280;9381;54.244;10.074;2022-10-31T01:07:34;101314.78;;;14.01;100.00
18504;BME280;9381;54.244;10.074;2022-10-31T01:12:39;101316.72;;;13.94;100.00
18504;BME280;9381;54.244;10.074;2022-10-31T01:17:40;101326.25;;;14.03;100.00
18504;BME280;9381;54.244;10.074;2022-10-31T01:22:40;101319.47;;;14.12;100.00
18504;BME280;9381;54.244;10.074;2022-10-31T01:27:41;101319.00;;;14.21;100.00
18504;BME280;9381;54.244;10.074;2022-10-31T01:32:41;101327.59;;;14.18;100.00
18504;BME280;9381;54.244;10.074;2022-10-31T01:37:41;101322.88;;;14.07;100.00
18504;BME280;9381;54.244;10.074;2022-10-31T01:42:42;101330.75;;;14.15;100.00
18504;BME280;9381;54.244;10.074;2022-10-31T01:47:47;101343.81;;;14.07;100.00
18504;BME280;9381;54.244;10.074;2022-10-31T01:52:50;101353.72;;;14.01;100.00
18504;BME280;9381;54.244;10.074;2022-10-31T01:57:54;101359.28;;;14.06;100.00
18504;BME280;9381;54.244;10.074;2022-10-31T02:02:55;101361.72;;;14.14;100.00
18504;BME280;9381;54.244;10.074;2022-10-31T02:08:14;101367.50;;;14.24;100.00
18504;BME280;9381;54.244;10.074;2022-10-31T02:13:16;101372.97;;;14.24;100.00
18504;BME280;9381;54.244;10.074;2022-10-31T02:18:18;101371.78;;;14.38;100.00
18504;BME280;9381;54.244;10.074;2022-10-31T02:29:25;101367.84;;;14.52;100.00
18504;BME280;9381;54.244;10.074;2022-10-31T02:34:44;101366.38;;;14.50;100.00
18504;BME280;9381;54.244;10.074;2022-10-31T02:45:10;101392.84;;;14.25;100.00
18504;BME280;9381;54.244;10.074;2022-10-31T02:50:22;101389.28;;;14.24;100.00
18504;BME280;9381;54.244;10.074;2022-10-31T03:00:24;101400.66;;;14.39;100.00
18504;BME280;9381;54.244;10.074;2022-10-31T03:05:40;101400.78;;;14.44;100.00
18504;BME280;9381;54.244;10.074;2022-10-31T03:15:50;101412.28;;;14.46;100.00
18504;BME280;9381;54.244;10.074;2022-10-31T03:21:01;101408.28;;;14.49;100.00
18504;BME280;9381;54.244;10.074;2022-10-31T03:26:06;101404.56;;;14.43;100.00
18504;BME280;9381;54.244;10.074;2022-10-31T03:31:08;101412.34;;;14.40;100.00
18504;BME280;9381;54.244;10.074;2022-10-31T03:36:12;101420.13;;;14.36;100.00
18504;BME280;9381;54.244;10.074;2022-10-31T03:41:18;101427.31;;;14.31;100.00
18504;BME280;9381;54.244;10.074;2022-10-31T03:46:21;101441.44;;;14.21;100.00
18504;BME280;9381;54.244;10.074;2022-10-31T03:51:45;101442.09;;;14.10;100.00
18504;BME280;9381;54.244;10.074;2022-10-31T03:56:56;101456.16;;;14.07;100.00
18504;BME280;9381;54.244;10.074;2022-10-31T04:02:02;101460.91;;;14.18;100.00
18504;BME280;9381;54.244;10.074;2022-10-31T04:07:04;101461.59;;;14.38;100.00
18504;BME280;9381;54.244;10.074;2022-10-31T04:12:07;101468.56;;;14.52;100.00
18504;BME280;9381;54.244;10.074;2022-10-31T04:17:12;101471.00;;;14.60;100.00
18504;BME280;9381;54.244;10.074;2022-10-31T04:22:13;101471.00;;;14.60;100.00
18504;BME280;9381;54.244;10.074;2022-10-31T04:27:13;101487.78;;;14.57;100.00
18504;BME280;9381;54.244;10.074;2022-10-31T04:32:14;101487.31;;;14.60;100.00
18504;BME280;9381;54.244;10.074;2022-10-31T04:37:14;101484.59;;;14.60;100.00
18504;BME280;9381;54.244;10.074;2022-10-31T04:42:14;101480.22;;;14.59;100.00
18504;BME280;9381;54.244;10.074;2022-10-31T04:47:14;101481.88;;;14.60;100.00
18504;BME280;9381;54.244;10.074;2022-10-31T04:52:15;101492.78;;;14.60;100.00
18504;BME280;9381;54.244;10.074;2022-10-31T04:57:15;101498.22;;;14.60;100.00
18504;BME280;9381;54.244;10.074;2022-10-31T05:02:15;101496.34;;;14.61;100.00
18504;BME280;9381;54.244;10.074;2022-10-31T05:07:15;101482.66;;;14.67;100.00
18504;BME280;9381;54.244;10.074;2022-10-31T05:12:16;101493.94;;;14.71;100.00
18504;BME280;9381;54.244;10.074;2022-10-31T05:17:16;101489.75;;;14.68;100.00
18504;BME280;9381;54.244;10.074;2022-10-31T05:22:16;101490.22;;;14.65;100.00
18504;BME280;9381;54.244;10.074;2022-10-31T05:27:16;101500.09;;;14.60;100.00
18504;BME280;9381;54.244;10.074;2022-10-31T05:32:17;101499.09;;;14.54;100.00
18504;BME280;9381;54.244;10.074;2022-10-31T05:37:17;101506.22;;;14.55;100.00
18504;BME280;9381;54.244;10.074;2022-10-31T05:42:17;101511.56;;;14.44;100.00
18504;BME280;9381;54.244;10.074;2022-10-31T05:47:17;101518.50;;;14.40;100.00
18504;BME280;9381;54.244;10.074;2022-10-31T05:52:18;101512.50;;;14.31;100.00
18504;BME280;9381;54.244;10.074;2022-10-31T05:57:18;101515.06;;;14.26;100.00
18504;BME280;9381;54.244;10.074;2022-10-31T06:02:20;101516.38;;;14.17;100.00
18504;BME280;9381;54.244;10.074;2022-10-31T06:07:20;101507.38;;;14.10;100.00
18504;BME280;9381;54.244;10.074;2022-10-31T06:12:20;101505.38;;;13.99;100.00
18504;BME280;9381;54.244;10.074;2022-10-31T06:17:21;101526.19;;;13.87;100.00
18504;BME280;9381;54.244;10.074;2022-10-31T06:22:21;101515.56;;;13.79;100.00
18504;BME280;9381;54.244;10.074;2022-10-31T06:27:22;101523.97;;;13.71;100.00
18504;BME280;9381;54.244;10.074;2022-10-31T06:32:22;101518.53;;;13.71;100.00
18504;BME280;9381;54.244;10.074;2022-10-31T06:37:23;101534.25;;;13.69;100.00
18504;BME280;9381;54.244;10.074;2022-10-31T06:42:23;101542.84;;;13.60;100.00
18504;BME280;9381;54.244;10.074;2022-10-31T06:47:23;101555.63;;;13.59;100.00
18504;BME280;9381;54.244;10.074;2022-10-31T06:52:23;101556.66;;;13.65;100.00
18504;BME280;9381;54.244;10.074;2022-10-31T06:57:24;101574.63;;;13.66;100.00
18504;BME280;9381;54.244;10.074;2022-10-31T07:02:24;101568.53;;;13.70;100.00
18504;BME280;9381;54.244;10.074;2022-10-31T07:07:24;101572.09;;;13.71;100.00
18504;BME280;9381;54.244;10.074;2022-10-31T07:12:25;101583.47;;;13.55;100.00
18504;BME280;9381;54.244;10.074;2022-10-31T07:17:25;101588.69;;;13.56;100.00
18504;BME280;9381;54.244;10.074;2022-10-31T07:22:34;101586.84;;;13.44;100.00
18504;BME280;9381;54.244;10.074;2022-10-31T07:27:37;101591.06;;;13.33;100.00
18504;BME280;9381;54.244;10.074;2022-10-31T07:32:46;101591.50;;;13.30;100.00
18504;BME280;9381;54.244;10.074;2022-10-31T07:37:47;101598.16;;;13.34;100.00
18504;BME280;9381;54.244;10.074;2022-10-31T07:42:51;101613.63;;;13.40;100.00
18504;BME280;9381;54.244;10.074;2022-10-31T07:47:52;101604.78;;;13.51;100.00
18504;BME280;9381;54.244;10.074;2022-10-31T07:53:10;101619.06;;;13.27;100.00
18504;BME280;9381;54.244;10.074;2022-10-31T07:58:13;101621.59;;;13.22;100.00
18504;BME280;9381;54.244;10.074;2022-10-31T08:03:16;101622.44;;;13.16;100.00
18504;BME280;9381;54.244;10.074;2022-10-31T08:08:17;101616.16;;;13.22;100.00
18504;BME280;9381;54.244;10.074;2022-10-31T08:13:17;101626.19;;;13.15;100.00
18504;BME280;9381;54.244;10.074;2022-10-31T08:18:18;101644.16;;;13.16;100.00
18504;BME280;9381;54.244;10.074;2022-10-31T08:23:18;101640.16;;;13.32;100.00
18504;BME280;9381;54.244;10.074;2022-10-31T08:28:19;101640.75;;;13.53;100.00
18504;BME280;9381;54.244;10.074;2022-10-31T08:33:19;101638.78;;;13.73;100.00
18504;BME280;9381;54.244;10.074;2022-10-31T08:38:19;101652.63;;;13.65;100.00
18504;BME280;9381;54.244;10.074;2022-10-31T08:43:20;101647.84;;;13.54;100.00
18504;BME280;9381;54.244;10.074;2022-10-31T08:48:20;101658.28;;;13.64;100.00
18504;BME280;9381;54.244;10.074;2022-10-31T08:53:21;101649.91;;;13.72;100.00
18504;BME280;9381;54.244;10.074;2022-10-31T08:58:23;101647.81;;;13.67;100.00
18504;BME280;9381;54.244;10.074;2022-10-31T09:03:29;101643.97;;;13.88;100.00
18504;BME280;9381;54.244;10.074;2022-10-31T09:08:31;101645.56;;;14.02;100.00
18504;BME280;9381;54.244;10.074;2022-10-31T09:13:32;101643.06;;;14.00;100.00
18504;BME280;9381;54.244;10.074;2022-10-31T09:18:33;101638.41;;;14.07;100.00
18504;BME280;9381;54.244;10.074;2022-10-31T09:23:33;101637.09;;;14.23;100.00
18504;BME280;9381;54.244;10.074;2022-10-31T09:28:34;101643.75;;;14.33;100.00
18504;BME280;9381;54.244;10.074;2022-10-31T09:33:34;101642.84;;;14.46;100.00
18504;BME280;9381;54.244;10.074;2022-10-31T09:38:35;101655.34;;;14.53;100.00
18504;BME280;9381;54.244;10.074;2022-10-31T09:43:58;101650.22;;;14.63;100.00
18504;BME280;9381;54.244;10.074;2022-10-31T09:54:52;101629.91;;;14.90;100.00
18504;BME280;9381;54.244;10.074;2022-10-31T09:59:54;101637.34;;;15.01;100.00
18504;BME280;9381;54.244;10.074;2022-10-31T10:09:57;101637.34;;;15.01;100.00
18504;BME280;9381;54.244;10.074;2022-10-31T10:26:00;101630.03;;;15.19;100.00
18504;BME280;9381;54.244;10.074;2022-10-31T10:31:13;101635.16;;;15.34;100.00
18504;BME280;9381;54.244;10.074;2022-10-31T10:36:19;101637.31;;;15.50;100.00
18504;BME280;9381;54.244;10.074;2022-10-31T10:41:24;101639.28;;;15.61;100.00
18504;BME280;9381;54.244;10.074;2022-10-31T10:46:48;101633.72;;;15.67;100.00
18504;BME280;9381;54.244;10.074;2022-10-31T11:02:32;101632.13;;;16.55;100.00
18504;BME280;9381;54.244;10.074;2022-10-31T11:07:39;101635.47;;;16.57;100.00
18504;BME280;9381;54.244;10.074;2022-10-31T11:12:41;101618.38;;;16.73;100.00
18504;BME280;9381;54.244;10.074;2022-10-31T11:17:42;101615.22;;;16.76;100.00
18504;BME280;9381;54.244;10.074;2022-10-31T11:22:44;101606.50;;;16.67;100.00
18504;BME280;9381;54.244;10.074;2022-10-31T11:27:45;101605.91;;;16.65;100.00
18504;BME280;9381;54.244;10.074;2022-10-31T11:32:49;101606.88;;;16.71;100.00
18504;BME280;9381;54.244;10.074;2022-10-31T11:37:53;101602.03;;;16.96;100.00
18504;BME280;9381;54.244;10.074;2022-10-31T11:42:57;101590.63;;;16.99;100.00
18504;BME280;9381;54.244;10.074;2022-10-31T11:48:01;101582.03;;;16.84;100.00
18504;BME280;9381;54.244;10.074;2022-10-31T11:53:03;101582.63;;;16.97;100.00
18504;BME280;9381;54.244;10.074;2022-10-31T11:58:04;101579.69;;;17.22;100.00
18504;BME280;9381;54.244;10.074;2022-10-31T12:08:28;101582.28;;;16.71;100.00
18504;BME280;9381;54.244;10.074;2022-10-31T12:13:55;101582.88;;;16.84;100.00
18504;BME280;9381;54.244;10.074;2022-10-31T12:50:31;101572.69;;;16.27;100.00
18504;BME280;9381;54.244;10.074;2022-10-31T12:55:51;101566.53;;;16.32;100.00
18504;BME280;9381;54.244;10.074;2022-10-31T13:01:22;101574.19;;;16.12;100.00
18504;BME280;9381;54.244;10.074;2022-10-31T13:06:32;101575.56;;;16.03;100.00
18504;BME280;9381;54.244;10.074;2022-10-31T13:11:37;101565.06;;;15.88;100.00
18504;BME280;9381;54.244;10.074;2022-10-31T13:16:43;101564.53;;;15.80;100.00
18504;BME280;9381;54.244;10.074;2022-10-31T13:27:03;101565.03;;;15.59;100.00
18504;BME280;9381;54.244;10.074;2022-10-31T13:32:10;101562.53;;;15.57;100.00
18504;BME280;9381;54.244;10.074;2022-10-31T13:37:16;101550.09;;;15.79;100.00
18504;BME280;9381;54.244;10.074;2022-10-31T13:42:43;101544.63;;;15.79;100.00
18504;BME280;9381;54.244;10.074;2022-10-31T13:48:19;101548.22;;;15.91;100.00
18504;BME280;9381;54.244;10.074;2022-10-31T13:53:22;101539.09;;;15.86;100.00
18504;BME280;9381;54.244;10.074;2022-10-31T13:58:31;101535.06;;;15.59;100.00
18504;BME280;9381;54.244;10.074;2022-10-31T14:03:33;101536.03;;;15.28;100.00
18504;BME280;9381;54.244;10.074;2022-10-31T14:08:39;101532.72;;;15.44;100.00
18504;BME280;9381;54.244;10.074;2022-10-31T14:13:44;101518.16;;;15.50;100.00
18504;BME280;9381;54.244;10.074;2022-10-31T14:18:50;101513.66;;;15.56;100.00
18504;BME280;9381;54.244;10.074;2022-10-31T14:23:57;101497.09;;;15.57;100.00
18504;BME280;9381;54.244;10.074;2022-10-31T14:34:31;101486.88;;;15.53;100.00
18504;BME280;9381;54.244;10.074;2022-10-31T14:39:46;101476.13;;;15.58;100.00
18504;BME280;9381;54.244;10.074;2022-10-31T14:45:00;101469.19;;;15.44;100.00
18504;BME280;9381;54.244;10.074;2022-10-31T14:50:32;101460.72;;;15.34;100.00
18504;BME280;9381;54.244;10.074;2022-10-31T14:55:43;101457.19;;;15.27;100.00
18504;BME280;9381;54.244;10.074;2022-10-31T15:00:45;101445.50;;;15.26;100.00
18504;BME280;9381;54.244;10.074;2022-10-31T15:05:51;101435.13;;;15.17;100.00
18504;BME280;9381;54.244;10.074;2022-10-31T15:10:52;101425.59;;;15.08;100.00
18504;BME280;9381;54.244;10.074;2022-10-31T15:15:54;101415.25;;;14.98;100.00
18504;BME280;9381;54.244;10.074;2022-10-31T15:20:56;101411.56;;;14.93;100.00
18504;BME280;9381;54.244;10.074;2022-10-31T15:26:01;101396.88;;;14.76;100.00
18504;BME280;9381;54.244;10.074;2022-10-31T15:31:02;101393.31;;;14.75;100.00
18504;BME280;9381;54.244;10.074;2022-10-31T15:36:03;101406.03;;;14.64;100.00
18504;BME280;9381;54.244;10.074;2022-10-31T15:41:06;101414.97;;;14.53;100.00
18504;BME280;9381;54.244;10.074;2022-10-31T15:46:19;101431.78;;;14.43;100.00
18504;BME280;9381;54.244;10.074;2022-10-31T15:51:28;101428.00;;;14.44;100.00
18504;BME280;9381;54.244;10.074;2022-10-31T15:56:31;101436.03;;;14.39;100.00
18504;BME280;9381;54.244;10.074;2022-10-31T16:01:32;101426.22;;;14.38;100.00
18504;BME280;9381;54.244;10.074;2022-10-31T16:06:34;101420.41;;;14.28;100.00
18504;BME280;9381;54.244;10.074;2022-10-31T16:11:36;101417.69;;;14.28;100.00
18504;BME280;9381;54.244;10.074;2022-10-31T16:16:43;101417.09;;;14.26;100.00
18504;BME280;9381;54.244;10.074;2022-10-31T16:21:44;101424.81;;;14.29;100.00
18504;BME280;9381;54.244;10.074;2022-10-31T16:26:51;101422.78;;;14.25;100.00
18504;BME280;9381;54.244;10.074;2022-10-31T16:31:52;101437.38;;;14.30;100.00
18504;BME280;9381;54.244;10.074;2022-10-31T16:36:54;101421.88;;;14.31;100.00
18504;BME280;9381;54.244;10.074;2022-10-31T16:41:55;101424.25;;;14.21;100.00
18504;BME280;9381;54.244;10.074;2022-10-31T16:47:16;101411.50;;;14.21;100.00
18504;BME280;9381;54.244;10.074;2022-10-31T16:52:17;101422.72;;;14.31;100.00
18504;BME280;9381;54.244;10.074;2022-10-31T16:57:24;101409.38;;;14.23;100.00
18504;BME280;9381;54.244;10.074;2022-10-31T17:02:26;101411.06;;;14.24;100.00
18504;BME280;9381;54.244;10.074;2022-10-31T17:07:26;101416.13;;;14.14;100.00
18504;BME280;9381;54.244;10.074;2022-10-31T17:12:27;101411.31;;;14.16;100.00
18504;BME280;9381;54.244;10.074;2022-10-31T17:17:27;101379.31;;;14.12;100.00
18504;BME280;9381;54.244;10.074;2022-10-31T17:22:28;101386.66;;;14.11;100.00
18504;BME280;9381;54.244;10.074;2022-10-31T17:27:28;101400.47;;;14.10;100.00
18504;BME280;9381;54.244;10.074;2022-10-31T17:32:29;101412.03;;;14.05;100.00
18504;BME280;9381;54.244;10.074;2022-10-31T17:37:29;101406.41;;;14.00;100.00
18504;BME280;9381;54.244;10.074;2022-10-31T17:42:29;101371.97;;;13.94;100.00
18504;BME280;9381;54.244;10.074;2022-10-31T17:47:29;101374.28;;;13.91;100.00
18504;BME280;9381;54.244;10.074;2022-10-31T17:52:30;101373.69;;;13.89;100.00
18504;BME280;9381;54.244;10.074;2022-10-31T17:57:34;101381.59;;;13.90;100.00
18504;BME280;9381;54.244;10.074;2022-10-31T18:02:35;101375.41;;;13.83;100.00
18504;BME280;9381;54.244;10.074;2022-10-31T18:07:35;101354.47;;;13.84;100.00
18504;BME280;9381;54.244;10.074;2022-10-31T18:12:36;101352.59;;;13.84;100.00
18504;BME280;9381;54.244;10.074;2022-10-31T18:17:37;101362.50;;;13.79;100.00
18504;BME280;9381;54.244;10.074;2022-10-31T18:22:37;101344.13;;;13.74;100.00
18504;BME280;9381;54.244;10.074;2022-10-31T18:27:37;101352.09;;;13.69;100.00
18504;BME280;9381;54.244;10.074;2022-10-31T18:32:37;101334.94;;;13.69;100.00
18504;BME280;9381;54.244;10.074;2022-10-31T18:37:38;101341.69;;;13.66;100.00
18504;BME280;9381;54.244;10.074;2022-10-31T18:42:39;101348.38;;;13.64;100.00
18504;BME280;9381;54.244;10.074;2022-10-31T18:47:39;101347.88;;;13.73;100.00
18504;BME280;9381;54.244;10.074;2022-10-31T18:52:39;101329.00;;;13.78;100.00
18504;BME280;9381;54.244;10.074;2022-10-31T18:57:40;101307.72;;;13.75;100.00
18504;BME280;9381;54.244;10.074;2022-10-31T19:02:40;101298.94;;;13.73;100.00
18504;BME280;9381;54.244;10.074;2022-10-31T19:07:40;101293.94;;;13.70;100.00
18504;BME280;9381;54.244;10.074;2022-10-31T19:12:41;101291.41;;;13.75;100.00
18504;BME280;9381;54.244;10.074;2022-10-31T19:17:41;101301.50;;;13.68;100.00
18504;BME280;9381;54.244;10.074;2022-10-31T19:22:42;101306.47;;;13.71;100.00
18504;BME280;9381;54.244;10.074;2022-10-31T19:27:42;101301.53;;;13.86;100.00
18504;BME280;9381;54.244;10.074;2022-10-31T19:32:42;101291.72;;;13.85;100.00
18504;BME280;9381;54.244;10.074;2022-10-31T19:37:43;101278.72;;;13.87;100.00
18504;BME280;9381;54.244;10.074;2022-10-31T19:42:43;101268.16;;;13.97;100.00
18504;BME280;9381;54.244;10.074;2022-10-31T19:47:43;101259.41;;;13.95;100.00
18504;BME280;9381;54.244;10.074;2022-10-31T19:52:44;101253.06;;;14.01;100.00
18504;BME280;9381;54.244;10.074;2022-10-31T19:57:44;101236.00;;;13.94;100.00
18504;BME280;9381;54.244;10.074;2022-10-31T20:02:44;101228.88;;;13.93;100.00
18504;BME280;9381;54.244;10.074;2022-10-31T20:07:45;101246.41;;;13.97;100.00
18504;BME280;9381;54.244;10.074;2022-10-31T20:12:45;101248.06;;;13.98;100.00
18504;BME280;9381;54.244;10.074;2022-10-31T20:17:45;101237.19;;;13.98;100.00
18504;BME280;9381;54.244;10.074;2022-10-31T20:22:46;101229.19;;;14.03;100.00
18504;BME280;9381;54.244;10.074;2022-10-31T20:27:48;101210.00;;;13.98;100.00
18504;BME280;9381;54.244;10.074;2022-10-31T20:32:49;101209.91;;;14.05;100.00
18504;BME280;9381;54.244;10.074;2022-10-31T20:37:49;101196.94;;;14.07;100.00
18504;BME280;9381;54.244;10.074;2022-10-31T20:42:49;101191.72;;;14.05;100.00
18504;BME280;9381;54.244;10.074;2022-10-31T20:47:52;101180.22;;;14.03;100.00
18504;BME280;9381;54.244;10.074;2022-10-31T20:52:53;101179.09;;;14.11;100.00
18504;BME280;9381;54.244;10.074;2022-10-31T20:57:53;101165.09;;;14.07;100.00
18504;BME280;9381;54.244;10.074;2022-10-31T21:02:53;101156.63;;;14.15;100.00
18504;BME280;9381;54.244;10.074;2022-10-31T21:07:54;101134.13;;;14.08;100.00
18504;BME280;9381;54.244;10.074;2022-10-31T21:12:54;101134.13;;;14.08;100.00
18504;BME280;9381;54.244;10.074;2022-10-31T21:17:55;101129.91;;;14.12;100.00
18504;BME280;9381;54.244;10.074;2022-10-31T21:22:55;101130.91;;;14.00;100.00
18504;BME280;9381;54.244;10.074;2022-10-31T21:27:55;101130.22;;;14.04;100.00
18504;BME280;9381;54.244;10.074;2022-10-31T21:32:56;101120.41;;;14.03;100.00
18504;BME280;9381;54.244;10.074;2022-10-31T21:37:56;101105.72;;;14.04;100.00
18504;BME280;9381;54.244;10.074;2022-10-31T21:42:59;101112.09;;;13.98;100.00
18504;BME280;9381;54.244;10.074;2022-10-31T21:48:00;101107.09;;;13.95;100.00
18504;BME280;9381;54.244;10.074;2022-10-31T21:53:01;101104.88;;;14.04;100.00
18504;BME280;9381;54.244;10.074;2022-10-31T21:58:21;101099.22;;;14.05;100.00
18504;BME280;9381;54.244;10.074;2022-10-31T22:03:21;101090.97;;;14.12;100.00
18504;BME280;9381;54.244;10.074;2022-10-31T22:08:22;101085.69;;;14.17;100.00
18504;BME280;9381;54.244;10.074;2022-10-31T22:13:22;101072.94;;;14.17;100.00
18504;BME280;9381;54.244;10.074;2022-10-31T22:18:22;101076.78;;;14.10;100.00
18504;BME280;9381;54.244;10.074;2022-10-31T22:23:23;101062.22;;;14.04;100.00
18504;BME280;9381;54.244;10.074;2022-10-31T22:28:28;101039.00;;;14.20;100.00
18504;BME280;9381;54.244;10.074;2022-10-31T22:33:28;101022.91;;;14.18;100.00
18504;BME280;9381;54.244;10.074;2022-10-31T22:38:32;100999.03;;;14.20;100.00
18504;BME280;9381;54.244;10.074;2022-10-31T22:43:39;100993.88;;;14.12;100.00
18504;BME280;9381;54.244;10.074;2022-10-31T22:48:42;100982.09;;;14.18;100.00
18504;BME280;9381;54.244;10.074;2022-10-31T22:53:43;100980.22;;;14.19;100.00
18504;BME280;9381;54.244;10.074;2022-10-31T22:58:45;100978.75;;;14.16;100.00
18504;BME280;9381;54.244;10.074;2022-10-31T23:03:46;100974.88;;;14.24;100.00
18504;BME280;9381;54.244;10.074;2022-10-31T23:08:47;100967.69;;;14.18;100.00
18504;BME280;9381;54.244;10.074;2022-10-31T23:13:49;100969.09;;;14.20;100.00
18504;BME280;9381;54.244;10.074;2022-10-31T23:19:10;100953.81;;;14.19;100.00
18504;BME280;9381;54.244;10.074;2022-10-31T23:24:11;100946.84;;;14.23;100.00
18504;BME280;9381;54.244;10.074;2022-10-31T23:29:12;100931.97;;;14.26;100.00
18504;BME280;9381;54.244;10.074;2022-10-31T23:34:12;100934.22;;;14.29;100.00
18504;BME280;9381;54.244;10.074;2022-10-31T23:39:12;100948.75;;;14.34;100.00
18504;BME280;9381;54.244;10.074;2022-10-31T23:44:12;100943.53;;;14.33;100.00
18504;BME280;9381;54.244;10.074;2022-10-31T23:49:13;100934.94;;;14.36;100.00
18504;BME280;9381;54.244;10.074;2022-10-31T23:54:13;100931.50;;;14.40;100.00
18504;BME280;9381;54.244;10.074;2022-10-31T23:59:13;100917.88;;;14.40;100.00
